AirNav   Everest Fuels
 
 1444 users online  

CL71 Hughes/Corporate Heliport
Los Angeles, California, USA

GOING TO LOS ANGELES?


FAA INFORMATION EFFECTIVE 03 JANUARY 2019

Location

FAA Identifier: CL71
Lat/Long: 33-57-58.2000N / 118-25-29.1000W
33-57.970000N / 118-25.485000W
33.9661667 / -118.4247500
(estimated)
Elevation: 75 ft. / 23 m (estimated)
Variation: 14E (1980)
From city: 11 miles SW of LOS ANGELES, CA
Time zone: UTC -8 (UTC -7 during Daylight Saving Time)
Zip code: 90045

Heliport Operations

Heliport use: Private use. Permission required prior to landing
Activation date: 07/1986
Control tower: no
ARTCC: LOS ANGELES CENTER
FSS: HAWTHORNE FLIGHT SERVICE STATION
Attendance: UNATNDD
Wind indicator: yes
Segmented circle: no
Lights: FOR PERIMETER LGTS CALL 818-375-4501 DURING NORMAL BUSINESS HOURS.

Heliport Communications

WX ASOS at LAX (1.6 nm SE): PHONE 310-568-1486
WX ASOS at SMO (3 nm NW): PHONE 310-392-6453
WX ASOS at HHR (5 nm SE): PHONE 310-973-8930
WX AWOS-3PT at CPM (10 nm SE): 127.150 (310-631-4958)
WX ASOS at BUR (14 nm N): PHONE 818-841-1384
WX ASOS at VNY (15 nm N): PHONE 818-904-9213
WX ASOS at LGB (16 nm SE): PHONE 562-424-0572
WX AWOS-3PT at WHP (18 nm N): 132.1 (818-899-9820)

Nearby radio navigation aids

VOR radial/distance  VOR name  Freq  Var
LAXr355/2.0LOS ANGELES VORTAC113.6015E
SMOr134/3.1SANTA MONICA VOR/DME110.8015E
VNYr153/15.8VAN NUYS VOR/DME113.1015E
SLIr286/21.4SEAL BEACH VORTAC115.7015E
VTUr091/32.3VENTURA VOR/DME108.2015E
POMr243/32.4POMONA VORTAC110.4015E
FIMr121/32.6FILLMORE VORTAC112.5015E
SXCr345/35.5SANTA CATALINA VORTAC111.4015E
CMAr099/36.4CAMARILLO VOR/DME115.8015E
ELBr283/38.7EL TORO VOR/DME117.2014E

 
NDB name  Hdg/Dist  Freq  Var  ID
EL MONTE234/20.935915EEMT . -- -

Heliport Services

Runway Information

Helipad H1

Dimensions: 120 x 60 ft. / 37 x 18 m
Surface: concrete
Runway edge lights: PERIMETER LGTS.
Latitude: 33-57.970000N
Longitude: 118-25.485000W
Elevation: 75.0 ft.
Traffic pattern: leftleft

Heliport Ownership and Management from official FAA records

Ownership: Privately-owned
Owner: LOYOLA MARYMOUNT UNIVERSITY
1 LMU DRIVE
LOS ANGELES, CA 90045
Phone (310) 338-2893
Manager: HAMPTON CANTRELL
1 LMU DRIVE
LOS ANGELES, CA 90045
Phone (310) 338-2893

Instrument Procedures

There are no published instrument procedures at CL71.

Some nearby airports with instrument procedures:

KLAX - Los Angeles International Airport (2 nm SE)
KSMO - Santa Monica Municipal Airport (3 nm NW)
KHHR - Jack Northrop Field/Hawthorne Municipal Airport (5 nm SE)
KTOA - Zamperini Field Airport (11 nm SE)
KBUR - Bob Hope Airport (14 nm N)
KVNY - Van Nuys Airport (15 nm N)
KLGB - Long Beach Airport (Daugherty Field) (16 nm SE)
KWHP - Whiteman Airport (18 nm N)
 
Loc | Ops | Rwys | IFR | FBO | Links
Com | Nav | Svcs | Stats | Notes
Area around CL71 (Hughes/Corporate Heliport)
 
Road maps at: MapQuest Bing Google
 
Aerial photo
No photo
 
Sectional chart

 
Airport distance calculator
Flying to Hughes/Corporate Heliport? Find the distance to fly.

From to CL71

Sunrise and sunset
Times for 18-Jan-2019
 Local
(UTC-8)
 Zulu
(UTC)
Morning civil twilight06:3214:32
Sunrise06:5914:59
Sunset17:0901:09
Evening civil twilight17:3601:36

Current date and time
Zulu (UTC)  18-Jan-2019 16:46:02
Local (UTC-8)  18-Jan-2019 08:46:02
 
METAR
KLAX 
3nm SE 
181600Z 07006KT 5SM BR SCT005 BKN019 BKN140 13/12 A3025 RMK AO2 BKN019 V SCT T01330122
KSMO 
3nm NW 
181551Z 03003KT 7SM FEW021 13/11 A3024 RMK AO2 SLP241 T01330111
KHHR 
5nm SE 
181621Z VRB04KT 4SM BR SCT005 OVC020 14/13 A3025 RMK AO2 T01390128
KCQT 
11nm NE 
181618Z AUTO 00000KT 5SM BR SCT009 OVC021 14/12 A3025 RMK AO2 T01390122
KTOA 
12nm SE 
181555Z 00000KT 1/8SM FG VV001 12/11 A3025
KBUR 
14nm N 
181553Z 00000KT 10SM SCT006 10/09 A3024 RMK AO2 SLP234 T01000089
KVNY 
15nm N 
181613Z 00000KT 9SM FEW007 12/09 A3024 RMK AO2 T01170094
KLGB 
16nm SE 
181553Z 00000KT 1/2SM R30/2600VP6000FT FG BKN001 BKN009 12/12 A3024 RMK AO2 SLP241 T01220122
KWHP 
17nm N 
181550Z 00000KT 10SM FEW020 09/09 A3027
TAF
KLAX 
3nm SE 
181617Z 1816/1918 04006KT 4SM BR SCT005 BKN018 FM181700 VRB03KT 5SM HZ SCT005 SCT018 FM181800 26010KT P6SM SCT040 FM190400 VRB03KT P6SM SKC FM191700 25008KT P6SM SKC
KSMO 
3nm NW 
181435Z 1815/1912 VRB03KT P6SM SCT007 BKN025 TEMPO 1815/1817 BKN007 FM181730 23008KT P6SM SCT035 FM190300 VRB03KT P6SM SKC
KBUR 
14nm N 
181437Z 1815/1912 VRB03KT P6SM SCT015 TEMPO 1815/1817 BKN015 FM181800 17008KT P6SM SCT035 FM190300 VRB03KT P6SM SKC
KVNY 
15nm N 
181436Z 1815/1912 VRB03KT P6SM BKN015 FM181630 35006KT P6SM SCT015 FM190300 36009KT P6SM SKC
KLGB 
16nm SE 
181521Z 1815/1912 VRB03KT 2SM BR VCFG SCT002 BKN015 FM181730 18008KT P6SM SCT035 FM182300 29008KT P6SM SKC FM190400 VRB03KT P6SM SKC
NOTAMs
Click for the latest NOTAMs
NOTAMs are issued by the DoD/FAA and will open in a separate window not controlled by AirNav.

 

 
 

Would you like to see your business listed on this page?

 If your business provides an interesting product or service to pilots, flight crews, aircraft, or users of the Hughes/Corporate Heliport, you should consider listing it here.  To start the listing process, click on the button below
 
Add a business
 

Other Pages about Hughes/Corporate Heliport

Update a link
 
Copyright © AirNav, LLC. All rights reserved. Privacy Policy  Contact